createdAt,value
2019-04-27T00:02:28.314Z,1.30
2019-04-27T00:07:51.502Z,1.10
2019-04-27T00:10:30.984Z,1.20
2019-04-27T00:13:05.668Z,1.02
2019-04-27T00:15:54.493Z,1.07
2019-04-27T00:18:35.757Z,1.10
2019-04-27T00:21:23.750Z,1.20
2019-04-27T00:23:54.988Z,1.10
2019-04-27T00:26:26.352Z,1.00
2019-04-27T00:28:57.621Z,1.22
2019-04-27T00:31:28.854Z,1.15
2019-04-27T00:34:03.609Z,1.20
2019-04-27T00:36:41.282Z,1.00
2019-04-27T00:39:20.134Z,1.15
2019-04-27T00:41:53.036Z,0.80
2019-04-27T00:44:24.502Z,0.90
2019-04-27T00:46:56.019Z,1.10
2019-04-27T00:49:27.281Z,1.05
2019-04-27T00:51:58.811Z,1.15
2019-04-27T00:54:30.062Z,1.10
2019-04-27T00:57:10.387Z,0.90
2019-04-27T01:00:00.512Z,0.90
2019-04-27T01:02:54.633Z,1.02
2019-04-27T01:05:27.421Z,0.88
2019-04-27T01:07:58.687Z,1.02
2019-04-27T01:10:30.502Z,1.25
2019-04-27T01:15:31.680Z,1.30
2019-04-27T01:18:12.225Z,0.95
2019-04-27T01:20:38.707Z,1.30
2019-04-27T01:23:10.835Z,1.20
2019-04-27T01:26:03.987Z,1.07
2019-04-27T01:28:41.507Z,1.05
2019-04-27T01:31:14.051Z,1.20
2019-04-27T01:33:45.224Z,1.20
2019-04-27T01:36:16.816Z,1.20
2019-04-27T01:38:50.144Z,1.00
2019-04-27T01:41:21.614Z,1.10
2019-04-27T01:43:52.942Z,1.42
2019-04-27T01:46:24.449Z,1.02
2019-04-27T01:48:55.607Z,1.20
2019-04-27T01:51:27.065Z,1.40
2019-04-27T01:53:59.377Z,0.93
2019-04-27T01:56:30.696Z,1.20
2019-04-27T01:59:01.853Z,1.07
2019-04-27T02:02:01.100Z,1.05
2019-04-27T02:04:49.305Z,1.25
2019-04-27T02:07:20.607Z,1.27
2019-04-27T02:09:52.050Z,0.90
2019-04-27T02:12:23.622Z,1.20
2019-04-27T02:14:55.099Z,1.10
2019-04-27T02:17:26.555Z,1.27
2019-04-27T02:19:59.486Z,1.02
2019-04-27T02:22:31.230Z,1.02
2019-04-27T02:25:02.400Z,1.00
2019-04-27T02:27:35.161Z,1.10
2019-04-27T02:30:30.627Z,1.10
2019-04-27T02:33:26.906Z,1.40
2019-04-27T02:36:00.374Z,1.10
2019-04-27T02:38:32.760Z,1.07
2019-04-27T02:41:05.083Z,1.10
2019-04-27T02:43:56.083Z,1.27
2019-04-27T02:46:29.418Z,1.05
2019-04-27T02:49:05.997Z,0.90
2019-04-27T02:51:45.828Z,1.05
2019-04-27T02:54:17.023Z,1.30
2019-04-27T02:56:50.060Z,1.20
2019-04-27T02:59:21.738Z,1.15
2019-04-27T03:02:00.726Z,1.20
2019-04-27T03:04:32.156Z,1.10
2019-04-27T03:07:03.313Z,1.00
2019-04-27T03:09:34.492Z,1.20
2019-04-27T03:12:05.875Z,1.27
2019-04-27T03:14:53.622Z,1.27
2019-04-27T03:17:43.156Z,1.20
2019-04-27T03:20:33.357Z,1.60
2019-04-27T03:23:09.509Z,1.22
2019-04-27T03:25:51.641Z,1.55
2019-04-27T03:28:22.831Z,1.85
2019-04-27T03:30:53.994Z,1.50
2019-04-27T03:33:25.285Z,1.15
2019-04-27T03:35:56.538Z,1.52
2019-04-27T03:38:30.102Z,1.30
2019-04-27T03:41:00.762Z,1.32
2019-04-27T03:43:32.012Z,1.30
2019-04-27T03:46:03.290Z,1.47
2019-04-27T03:48:34.850Z,1.57
2019-04-27T03:51:19.935Z,1.45
2019-04-27T03:54:12.568Z,1.60
2019-04-27T03:56:46.644Z,1.30
2019-04-27T03:59:36.855Z,1.30
2019-04-27T04:02:10.191Z,1.60
2019-04-27T04:04:42.192Z,1.70
2019-04-27T04:07:16.434Z,2.15
2019-04-27T04:09:50.097Z,1.85
2019-04-27T04:12:30.207Z,1.42
2019-04-27T04:15:01.665Z,1.73
2019-04-27T04:17:34.444Z,1.55
2019-04-27T04:20:06.605Z,1.50
2019-04-27T04:22:40.380Z,1.55
2019-04-27T04:25:11.742Z,1.72
2019-04-27T04:27:43.535Z,1.87
2019-04-27T04:30:15.268Z,1.35
2019-04-27T04:35:21.828Z,1.30
2019-04-27T04:38:14.770Z,1.65
2019-04-27T04:40:52.439Z,1.25
2019-04-27T04:43:31.371Z,1.40
2019-04-27T04:46:22.820Z,1.17
2019-04-27T04:48:53.182Z,1.30
2019-04-27T04:51:24.665Z,1.40
2019-04-27T04:53:55.852Z,1.22
2019-04-27T04:56:29.055Z,1.40
2019-04-27T04:59:00.250Z,1.60
2019-04-27T05:01:32.563Z,1.37
2019-04-27T05:04:03.783Z,1.40
2019-04-27T05:06:34.930Z,1.50
2019-04-27T05:09:06.820Z,1.57
2019-04-27T05:11:39.597Z,1.47
2019-04-27T05:14:11.292Z,1.52
2019-04-27T05:16:42.429Z,1.47
2019-04-27T05:19:13.676Z,1.67
2019-04-27T05:21:44.969Z,1.35
2019-04-27T05:24:16.163Z,1.60
2019-04-27T05:26:48.723Z,1.60
2019-04-27T05:29:20.140Z,1.87
2019-04-27T05:31:51.313Z,1.52
2019-04-27T05:34:23.184Z,1.60
2019-04-27T05:39:25.197Z,1.70
2019-04-27T05:41:59.969Z,1.77
2019-04-27T05:45:02.084Z,1.95
2019-04-27T05:47:49.519Z,1.90
2019-04-27T05:50:22.028Z,1.60
2019-04-27T05:52:52.098Z,1.50
2019-04-27T05:57:53.730Z,1.80
2019-04-27T06:00:25.626Z,1.75
2019-04-27T06:05:29.088Z,2.05
2019-04-27T06:08:00.148Z,1.90
2019-04-27T06:10:31.582Z,2.22
2019-04-27T06:13:02.806Z,2.10
2019-04-27T06:15:34.021Z,2.20
2019-04-27T06:18:05.317Z,2.95
2019-04-27T06:20:50.364Z,4.53
2019-04-27T06:23:10.814Z,4.05
2019-04-27T06:25:42.334Z,3.58
2019-04-27T06:28:13.866Z,5.97
2019-04-27T06:30:45.060Z,3.62
2019-04-27T06:33:29.239Z,12.03
2019-04-27T06:35:50.533Z,16.45
2019-04-27T06:40:51.998Z,6.87
2019-04-27T06:43:23.526Z,6.37
2019-04-27T06:45:54.999Z,5.87
2019-04-27T06:48:26.511Z,4.47
2019-04-27T06:51:03.622Z,3.77
2019-04-27T06:53:31.083Z,3.37
2019-04-27T06:56:02.609Z,3.50
2019-04-27T06:58:33.822Z,3.35
2019-04-27T07:01:05.336Z,7.25
2019-04-27T07:03:39.471Z,3.58
2019-04-27T07:06:10.863Z,3.50
2019-04-27T07:08:42.725Z,3.10
2019-04-27T07:13:44.653Z,2.65
2019-04-27T07:18:47.644Z,2.47
2019-04-27T07:21:24.277Z,2.80
2019-04-27T07:23:59.387Z,2.45
2019-04-27T07:26:32.369Z,2.33
2019-04-27T07:29:03.737Z,2.15
2019-04-27T07:31:36.346Z,1.98
2019-04-27T07:34:09.253Z,1.80
2019-04-27T07:36:40.726Z,2.00
2019-04-27T07:39:11.890Z,1.95
2019-04-27T07:41:43.231Z,2.00
2019-04-27T07:44:51.516Z,1.70
2019-04-27T07:47:24.548Z,2.08
2019-04-27T07:49:55.743Z,2.90
2019-04-27T07:52:28.705Z,1.95
2019-04-27T07:55:00.275Z,2.02
2019-04-27T07:57:31.546Z,2.60
2019-04-27T08:00:02.835Z,2.30
2019-04-27T08:02:34.205Z,2.37
2019-04-27T08:05:05.609Z,2.17
2019-04-27T08:07:38.974Z,2.10
2019-04-27T08:10:10.662Z,2.27
2019-04-27T08:12:41.894Z,2.27
2019-04-27T08:15:13.655Z,2.10
2019-04-27T08:20:15.744Z,1.85
2019-04-27T08:25:18.829Z,1.87
2019-04-27T08:28:10.426Z,2.02
2019-04-27T08:30:52.012Z,1.80
2019-04-27T08:33:23.194Z,2.00
2019-04-27T08:35:55.749Z,1.85
2019-04-27T08:38:28.493Z,1.90
2019-04-27T08:41:00.178Z,1.77
2019-04-27T08:43:31.683Z,1.60
2019-04-27T08:46:03.137Z,1.52
2019-04-27T08:48:36.892Z,1.47
2019-04-27T08:51:09.585Z,1.22
2019-04-27T08:53:41.127Z,1.10
2019-04-27T08:56:12.930Z,1.20
2019-04-27T09:01:14.404Z,1.20
2019-04-27T09:03:45.834Z,1.27
2019-04-27T09:06:19.009Z,1.10
2019-04-27T09:09:02.795Z,1.25
2019-04-27T09:11:46.524Z,1.27
2019-04-27T09:14:31.575Z,1.02
2019-04-27T09:17:19.663Z,1.10
2019-04-27T09:20:13.092Z,1.60
2019-04-27T09:22:44.645Z,1.00
2019-04-27T09:25:16.110Z,0.90
2019-04-27T09:27:49.144Z,1.07
2019-04-27T09:30:20.198Z,0.98
2019-04-27T09:32:52.328Z,0.90
2019-04-27T09:35:23.782Z,0.82
2019-04-27T09:37:56.316Z,0.90
2019-04-27T09:40:28.017Z,0.93
2019-04-27T09:42:59.180Z,1.07
2019-04-27T09:45:30.412Z,0.88
2019-04-27T09:48:02.082Z,0.82
2019-04-27T09:50:35.940Z,0.90
2019-04-27T09:53:07.968Z,0.90
2019-04-27T09:55:39.850Z,1.00
2019-04-27T10:00:41.953Z,1.07
2019-04-27T10:03:13.529Z,0.80
2019-04-27T10:05:45.941Z,1.10
2019-04-27T10:08:17.283Z,0.93
2019-04-27T10:10:48.785Z,1.07
2019-04-27T10:13:20.069Z,0.82
2019-04-27T10:15:51.866Z,0.90
2019-04-27T10:20:59.682Z,0.80
2019-04-27T10:23:26.863Z,0.90
2019-04-27T10:25:59.572Z,0.80
2019-04-27T10:28:30.723Z,0.72
2019-04-27T10:31:02.351Z,0.62
2019-04-27T10:33:33.613Z,0.60
2019-04-27T10:36:06.503Z,0.70
2019-04-27T10:38:38.255Z,0.50
2019-04-27T10:41:09.834Z,0.70
2019-04-27T10:43:41.448Z,0.60
2019-04-27T10:47:20.842Z,0.85
2019-04-27T10:49:52.705Z,0.85
2019-04-27T10:54:55.635Z,0.70
2019-04-27T10:57:27.315Z,0.65
2019-04-27T10:59:59.134Z,0.50
2019-04-27T11:05:10.557Z,0.50
2019-04-27T11:07:42.170Z,0.50
2019-04-27T11:10:13.484Z,0.70
2019-04-27T11:12:45.783Z,0.57
2019-04-27T11:15:17.235Z,0.68
2019-04-27T11:17:48.822Z,0.65
2019-04-27T11:20:20.917Z,0.55
2019-04-27T11:22:52.454Z,0.60
2019-04-27T11:25:23.606Z,0.53
2019-04-27T11:27:57.496Z,0.60
2019-04-27T11:30:28.098Z,0.70
2019-04-27T11:32:59.421Z,0.50
2019-04-27T11:35:43.848Z,0.55
2019-04-27T11:38:16.614Z,0.60
2019-04-27T11:40:48.086Z,0.98
2019-04-27T11:43:19.356Z,0.68
2019-04-27T11:45:50.840Z,0.60
2019-04-27T11:48:22.484Z,0.50
2019-04-27T11:50:53.662Z,0.75
2019-04-27T11:53:26.240Z,0.60
2019-04-27T11:55:57.894Z,0.90
2019-04-27T11:58:29.620Z,0.60
2019-04-27T12:01:00.813Z,0.70
2019-04-27T12:03:32.058Z,0.70
2019-04-27T12:06:03.587Z,0.50
2019-04-27T12:08:36.518Z,0.60
2019-04-27T12:11:07.811Z,0.60
2019-04-27T12:13:39.688Z,0.60
2019-04-27T12:18:41.312Z,0.80
2019-04-27T12:21:12.544Z,0.60
2019-04-27T12:23:44.739Z,0.75
2019-04-27T12:26:33.398Z,0.78
2019-04-27T12:29:06.260Z,0.80
2019-04-27T12:31:42.941Z,0.90
2019-04-27T12:34:13.147Z,0.70
2019-04-27T12:36:45.920Z,1.25
2019-04-27T12:39:17.408Z,0.80
2019-04-27T12:41:48.959Z,0.85
2019-04-27T12:44:20.790Z,1.00
2019-04-27T12:49:23.216Z,1.00
2019-04-27T12:54:33.630Z,0.80
2019-04-27T12:57:36.386Z,1.00
2019-04-27T13:00:17.900Z,0.98
2019-04-27T13:02:49.119Z,0.93
2019-04-27T13:05:20.378Z,1.00
2019-04-27T13:07:51.585Z,0.70
2019-04-27T13:10:23.404Z,0.80
2019-04-27T13:15:26.505Z,1.00
2019-04-27T13:17:58.264Z,0.62
2019-04-27T13:20:29.454Z,0.62
2019-04-27T13:23:01.845Z,0.80
2019-04-27T13:25:33.565Z,0.80
2019-04-27T13:28:05.667Z,1.65
2019-04-27T13:30:37.287Z,1.75
2019-04-27T13:33:08.535Z,1.02
2019-04-27T13:35:40.285Z,1.00
2019-04-27T13:38:11.496Z,1.20
2019-04-27T13:40:45.796Z,0.72
2019-04-27T13:43:31.107Z,0.90
2019-04-27T13:46:20.366Z,0.68
2019-04-27T13:49:26.413Z,0.60
2019-04-27T13:52:06.148Z,0.45
2019-04-27T13:54:38.120Z,0.53
2019-04-27T13:59:39.597Z,0.50
2019-04-27T14:02:11.132Z,0.60
2019-04-27T14:04:42.961Z,0.40
2019-04-27T14:09:44.430Z,0.47
2019-04-27T14:12:24.576Z,0.50
2019-04-27T14:14:55.843Z,0.40
2019-04-27T14:17:27.072Z,0.42
2019-04-27T14:19:59.531Z,0.40
2019-04-27T14:22:31.640Z,0.40
2019-04-27T14:25:03.168Z,0.40
2019-04-27T14:27:40.951Z,0.50
2019-04-27T14:30:14.552Z,0.50
2019-04-27T14:32:46.154Z,0.50
2019-04-27T14:35:18.372Z,0.50
2019-04-27T14:37:50.312Z,0.47
2019-04-27T14:40:21.969Z,0.50
2019-04-27T14:42:54.093Z,1.12
2019-04-27T14:45:25.934Z,1.00
2019-04-27T14:47:58.227Z,1.50
2019-04-27T14:50:31.090Z,1.20
2019-04-27T14:53:02.311Z,1.10
2019-04-27T14:55:33.567Z,1.00
2019-04-27T14:58:04.779Z,0.80
2019-04-27T15:00:36.058Z,0.98
2019-04-27T15:03:07.598Z,0.70
2019-04-27T15:05:39.606Z,0.62
2019-04-27T15:08:11.093Z,0.90
2019-04-27T15:10:42.602Z,0.80
2019-04-27T15:13:14.530Z,0.65
2019-04-27T15:15:45.700Z,0.47
2019-04-27T15:18:17.407Z,0.50
2019-04-27T15:23:20.093Z,0.60
2019-04-27T15:25:51.405Z,0.50
2019-04-27T15:28:27.407Z,0.70
2019-04-27T15:31:26.343Z,0.60
2019-04-27T15:34:11.417Z,0.55
2019-04-27T15:37:04.737Z,0.50
2019-04-27T15:39:53.927Z,0.55
2019-04-27T15:42:31.086Z,0.40
2019-04-27T15:45:02.684Z,0.80
2019-04-27T15:50:05.627Z,0.60
2019-04-27T15:52:38.355Z,0.50
2019-04-27T15:55:31.208Z,0.80
2019-04-27T15:57:46.977Z,0.62
2019-04-27T16:00:25.677Z,0.40
2019-04-27T16:02:57.523Z,0.50
2019-04-27T16:08:06.204Z,0.50
2019-04-27T16:10:37.413Z,0.40
2019-04-27T16:13:09.365Z,0.40
2019-04-27T16:15:40.388Z,0.40
2019-04-27T16:18:11.723Z,0.65
2019-04-27T16:20:42.886Z,0.50
2019-04-27T16:23:15.168Z,0.40
2019-04-27T16:25:49.386Z,0.50
2019-04-27T16:28:19.504Z,0.50
2019-04-27T16:30:53.819Z,0.68
2019-04-27T16:33:24.845Z,0.62
2019-04-27T16:36:00.331Z,0.50
2019-04-27T16:38:34.852Z,0.50
2019-04-27T16:41:08.106Z,0.40
2019-04-27T16:43:39.499Z,0.70
2019-04-27T16:46:10.719Z,0.50
2019-04-27T16:48:42.670Z,0.57
2019-04-27T16:53:43.787Z,0.88
2019-04-27T16:56:18.255Z,0.72
2019-04-27T16:58:48.973Z,0.50
2019-04-27T17:01:30.468Z,0.65
2019-04-27T17:04:02.173Z,0.60
2019-04-27T17:06:33.849Z,0.60
2019-04-27T17:09:11.418Z,0.47
2019-04-27T17:11:43.974Z,0.60
2019-04-27T17:14:36.479Z,0.53
2019-04-27T17:19:53.910Z,0.90
2019-04-27T17:22:25.361Z,0.65
2019-04-27T17:24:58.129Z,0.70
2019-04-27T17:27:38.362Z,0.72
2019-04-27T17:30:10.670Z,1.00
2019-04-27T17:32:54.000Z,0.80
2019-04-27T17:35:25.625Z,0.50
2019-04-27T17:37:59.431Z,0.85
2019-04-27T17:40:34.325Z,0.85
2019-04-27T17:43:06.990Z,0.90
2019-04-27T17:45:37.609Z,0.70
2019-04-27T17:48:10.781Z,1.10
2019-04-27T17:50:41.576Z,0.80
2019-04-27T17:53:13.074Z,0.93
2019-04-27T17:55:44.298Z,0.70
2019-04-27T17:58:18.012Z,0.88
2019-04-27T18:00:48.956Z,0.60
2019-04-27T18:03:21.182Z,0.60
2019-04-27T18:05:52.386Z,0.45
2019-04-27T18:08:25.216Z,0.60
2019-04-27T18:11:03.062Z,0.60
2019-04-27T18:13:31.533Z,0.80
2019-04-27T18:18:59.994Z,0.82
2019-04-27T18:21:32.237Z,0.78
2019-04-27T18:24:09.402Z,1.02
2019-04-27T18:27:02.946Z,0.70
2019-04-27T18:29:30.951Z,0.78
2019-04-27T18:32:02.292Z,0.68
2019-04-27T18:34:33.608Z,0.78
2019-04-27T18:37:05.110Z,0.70
2019-04-27T18:39:38.783Z,0.95
2019-04-27T18:42:11.109Z,0.90
2019-04-27T18:44:42.632Z,0.85
2019-04-27T18:47:14.449Z,0.80
2019-04-27T18:52:50.657Z,0.70
2019-04-27T18:55:22.166Z,1.60
2019-04-27T18:57:54.443Z,1.40
2019-04-27T19:00:27.652Z,1.27
2019-04-27T19:03:00.522Z,1.40
2019-04-27T19:05:40.221Z,0.88
2019-04-27T19:08:04.974Z,2.10
2019-04-27T19:10:38.265Z,1.95
2019-04-27T19:13:09.903Z,1.95
2019-04-27T19:15:41.520Z,2.33
2019-04-27T19:18:12.794Z,1.52
2019-04-27T19:20:44.873Z,1.70
2019-04-27T19:23:16.927Z,3.05
2019-04-27T19:26:04.083Z,1.40
2019-04-27T19:28:43.158Z,1.67
2019-04-27T19:31:19.167Z,1.20
2019-04-27T19:33:50.691Z,1.10
2019-04-27T19:36:23.006Z,1.42
2019-04-27T19:38:58.270Z,1.20
2019-04-27T19:41:31.535Z,1.10
2019-04-27T19:44:03.070Z,1.20
2019-04-27T19:46:35.931Z,1.30
2019-04-27T19:49:10.458Z,1.40
2019-04-27T19:51:42.282Z,1.20
2019-04-27T19:56:44.723Z,1.27
2019-04-27T19:59:23.840Z,1.20
2019-04-27T20:01:58.308Z,1.65
2019-04-27T20:04:33.970Z,1.42
2019-04-27T20:07:05.778Z,1.30
2019-04-27T20:09:52.133Z,1.87
2019-04-27T20:12:23.757Z,1.80
2019-04-27T20:14:58.261Z,1.50
2019-04-27T20:17:32.427Z,1.47
2019-04-27T20:20:03.914Z,1.55
2019-04-27T20:22:35.435Z,1.30
2019-04-27T20:25:06.811Z,1.40
2019-04-27T20:27:48.746Z,1.20
2019-04-27T20:30:12.560Z,1.15
2019-04-27T20:32:45.977Z,1.32
2019-04-27T20:35:18.760Z,1.40
2019-04-27T20:40:21.795Z,0.98
2019-04-27T20:42:54.137Z,1.25
2019-04-27T20:45:25.276Z,1.42
2019-04-27T20:47:56.468Z,1.70
2019-04-27T20:50:28.242Z,1.30
2019-04-27T20:55:32.318Z,1.30
2019-04-27T20:58:03.612Z,1.40
2019-04-27T21:00:35.309Z,1.05
2019-04-27T21:03:22.387Z,1.30
2019-04-27T21:06:11.625Z,1.12
2019-04-27T21:08:43.723Z,1.10
2019-04-27T21:11:15.252Z,1.20
2019-04-27T21:13:46.417Z,0.90
2019-04-27T21:16:17.571Z,1.37
2019-04-27T21:18:49.066Z,1.07
2019-04-27T21:21:20.501Z,1.40
2019-04-27T21:23:52.393Z,2.02
2019-04-27T21:26:24.279Z,2.60
2019-04-27T21:28:56.886Z,2.90
2019-04-27T21:31:28.804Z,2.47
2019-04-27T21:34:00.340Z,1.47
2019-04-27T21:36:31.590Z,1.40
2019-04-27T21:39:03.627Z,1.70
2019-04-27T21:41:36.679Z,1.45
2019-04-27T21:44:08.470Z,1.50
2019-04-27T21:49:11.167Z,1.30
2019-04-27T21:52:03.519Z,1.12
2019-04-27T21:54:36.325Z,1.10
2019-04-27T21:59:37.406Z,1.30
2019-04-27T22:02:11.974Z,1.05
2019-04-27T22:04:44.343Z,1.10
2019-04-27T22:07:15.515Z,1.82
2019-04-27T22:09:46.767Z,0.90
2019-04-27T22:12:18.634Z,1.30
2019-04-27T22:14:50.861Z,1.10
2019-04-27T22:17:23.056Z,1.10
2019-04-27T22:19:55.832Z,1.55
2019-04-27T22:22:37.306Z,0.90
2019-04-27T22:25:11.593Z,2.08
2019-04-27T22:27:42.869Z,1.40
2019-04-27T22:30:14.057Z,1.22
2019-04-27T22:32:45.536Z,1.50
2019-04-27T22:35:16.761Z,1.10
2019-04-27T22:37:48.215Z,1.20
2019-04-27T22:40:41.805Z,1.25
2019-04-27T22:43:44.541Z,1.30
2019-04-27T22:46:18.302Z,1.42
2019-04-27T22:48:51.589Z,1.05
2019-04-27T22:51:22.658Z,1.07
2019-04-27T22:53:53.808Z,1.30
2019-04-27T22:56:24.987Z,1.17
2019-04-27T22:59:04.537Z,0.80
2019-04-27T23:01:43.775Z,0.72
2019-04-27T23:04:17.723Z,0.95
2019-04-27T23:06:48.900Z,0.62
2019-04-27T23:09:21.788Z,0.98
2019-04-27T23:11:53.486Z,1.02
2019-04-27T23:14:25.034Z,0.70
2019-04-27T23:17:00.813Z,0.90
2019-04-27T23:19:33.096Z,0.60
2019-04-27T23:22:06.041Z,0.70
2019-04-27T23:24:37.746Z,0.80
2019-04-27T23:27:10.977Z,0.70
2019-04-27T23:29:42.251Z,0.70
2019-04-27T23:32:21.055Z,0.62
2019-04-27T23:34:53.831Z,0.65
2019-04-27T23:37:25.022Z,0.70
2019-04-27T23:39:56.472Z,0.78
2019-04-27T23:42:27.637Z,0.70
2019-04-27T23:44:59.075Z,0.80
2019-04-27T23:47:30.842Z,0.60
2019-04-27T23:52:52.444Z,0.70
2019-04-27T23:55:26.367Z,0.80
2019-04-27T23:59:10.321Z,0.90
